Time;durP1;ratioP1;P1;durP2;ratioP2;P2;SDS_P1;SDS_P2;PMS_P1;PMS_P2;Temp;Humidity;BMP_temperature;BMP_pressure;BME280_temperature;BME280_humidity;BME280_pressure;Samples;Min_cycle;Max_cycle;Signal;HPM_P1;HPM_P2
2022/07/18 00:00:06;;;;;;;7.73;1.90;;;;;;;;;;5072742;28;20187;-76
2022/07/18 00:03:10;;;;;;;7.40;1.80;;;;;;;;;;5097302;28;20641;-76
2022/07/18 00:06:14;;;;;;;7.27;1.90;;;;;;;;;;5059414;28;20214;-76
2022/07/18 00:09:20;;;;;;;4.53;1.90;;;;;;;;;;5080682;28;20206;-76
2022/07/18 00:12:24;;;;;;;5.37;2.13;;;;;;;;;;5094729;28;20226;-76
2022/07/18 00:15:28;;;;;;;5.13;2.00;;;;;;;;;;5075608;28;20195;-76
2022/07/18 00:18:33;;;;;;;4.13;2.03;;;;;;;;;;5076749;28;20172;-76
2022/07/18 00:21:37;;;;;;;3.53;2.30;;;;;;;;;;5064106;28;20215;-77
2022/07/18 00:24:41;;;;;;;4.30;2.00;;;;;;;;;;5074109;28;20633;-76
2022/07/18 00:27:45;;;;;;;4.77;1.87;;;;;;;;;;5082558;28;20183;-76
2022/07/18 00:30:49;;;;;;;5.97;2.33;;;;;;;;;;5072324;28;20692;-76
2022/07/18 00:33:53;;;;;;;5.00;1.63;;;;;;;;;;5072339;28;20187;-76
2022/07/18 00:36:57;;;;;;;3.37;1.80;;;;;;;;;;5095945;28;20198;-76
2022/07/18 00:40:01;;;;;;;3.60;2.00;;;;;;;;;;5083903;28;20175;-76
2022/07/18 00:43:05;;;;;;;3.03;1.90;;;;;;;;;;5096513;28;20203;-77
2022/07/18 00:46:11;;;;;;;5.20;2.07;;;;;;;;;;5095471;28;20186;-76
2022/07/18 00:49:15;;;;;;;4.50;2.00;;;;;;;;;;5083884;28;20195;-76
2022/07/18 00:52:19;;;;;;;4.57;2.23;;;;;;;;;;5072025;28;20218;-76
2022/07/18 00:55:23;;;;;;;3.47;2.17;;;;;;;;;;5074856;28;20187;-76
2022/07/18 00:58:28;;;;;;;3.67;1.70;;;;;;;;;;5063072;28;20519;-76
2022/07/18 01:01:48;;;;;;;4.63;1.87;;;;;;;;;;5052187;28;20215;-76
2022/07/18 01:04:53;;;;;;;4.60;1.87;;;;;;;;;;5083230;28;20187;-76
2022/07/18 01:07:57;;;;;;;2.23;1.70;;;;;;;;;;5083224;28;20210;-77
2022/07/18 01:11:01;;;;;;;5.43;1.80;;;;;;;;;;5095694;28;20538;-76
2022/07/18 01:14:06;;;;;;;4.40;1.70;;;;;;;;;;5095462;28;20534;-76
2022/07/18 01:17:18;;;;;;;3.87;1.83;;;;;;;;;;5083272;28;20519;-76
2022/07/18 01:20:27;;;;;;;2.67;1.83;;;;;;;;;;5071651;28;20174;-76
2022/07/18 01:23:31;;;;;;;5.07;1.70;;;;;;;;;;5095452;28;20179;-76
2022/07/18 01:26:36;;;;;;;8.73;1.70;;;;;;;;;;5062914;28;20195;-76
2022/07/18 01:29:40;;;;;;;3.50;1.80;;;;;;;;;;5073565;28;20218;-76
2022/07/18 01:32:44;;;;;;;2.43;1.77;;;;;;;;;;5071694;28;20207;-77
2022/07/18 01:35:48;;;;;;;2.30;1.90;;;;;;;;;;5064249;28;20191;-76
2022/07/18 01:38:52;;;;;;;7.17;1.97;;;;;;;;;;5082686;28;20174;-76
2022/07/18 01:41:58;;;;;;;2.40;1.80;;;;;;;;;;5082463;28;20616;-76
2022/07/18 01:45:03;;;;;;;2.70;1.60;;;;;;;;;;5094904;28;20190;-76
2022/07/18 01:48:07;;;;;;;4.10;1.80;;;;;;;;;;5062468;28;20176;-76
2022/07/18 01:51:11;;;;;;;3.83;1.70;;;;;;;;;;5075070;28;20203;-76
2022/07/18 01:54:19;;;;;;;4.67;1.70;;;;;;;;;;5068146;28;20194;-76
2022/07/18 01:57:23;;;;;;;2.90;1.63;;;;;;;;;;5066171;28;20523;-76
2022/07/18 02:00:27;;;;;;;3.50;1.97;;;;;;;;;;5062049;28;20172;-76
2022/07/18 02:03:31;;;;;;;3.90;2.00;;;;;;;;;;5051061;28;20541;-76
2022/07/18 02:06:36;;;;;;;2.53;1.80;;;;;;;;;;5062015;28;20682;-76
2022/07/18 02:09:40;;;;;;;3.53;1.90;;;;;;;;;;5062027;28;20207;-76
2022/07/18 02:12:44;;;;;;;2.17;1.63;;;;;;;;;;5058790;28;20191;-76
2022/07/18 02:15:48;;;;;;;4.70;1.90;;;;;;;;;;5070355;28;20186;-76
2022/07/18 02:18:52;;;;;;;3.00;1.90;;;;;;;;;;5070329;28;20183;-76
2022/07/18 02:21:57;;;;;;;1.97;1.70;;;;;;;;;;5081610;28;20214;-76
2022/07/18 02:25:02;;;;;;;2.70;2.10;;;;;;;;;;5081712;28;20186;-76
2022/07/18 02:28:06;;;;;;;2.20;1.90;;;;;;;;;;5050512;28;20638;-76
2022/07/18 02:31:09;;;;;;;4.03;2.20;;;;;;;;;;5079569;28;20203;-76
2022/07/18 02:34:14;;;;;;;2.57;1.53;;;;;;;;;;5081930;28;20187;-77
2022/07/18 02:37:18;;;;;;;2.87;1.93;;;;;;;;;;5081694;28;20179;-76
2022/07/18 02:40:22;;;;;;;1.63;1.53;;;;;;;;;;5061339;28;20653;-76
2022/07/18 02:43:27;;;;;;;3.00;1.77;;;;;;;;;;5094189;28;20175;-75
2022/07/18 02:46:31;;;;;;;4.07;1.87;;;;;;;;;;5070489;28;20183;-76
2022/07/18 02:49:35;;;;;;;4.87;2.63;;;;;;;;;;5093860;28;20199;-75
2022/07/18 02:52:41;;;;;;;2.53;1.70;;;;;;;;;;5093801;28;20187;-75
2022/07/18 02:55:45;;;;;;;2.37;1.60;;;;;;;;;;5061502;28;20523;-76
2022/07/18 02:58:49;;;;;;;3.13;1.80;;;;;;;;;;5061212;28;20180;-75
2022/07/18 03:01:55;;;;;;;3.00;1.73;;;;;;;;;;5073732;28;20227;-76
2022/07/18 03:04:59;;;;;;;3.30;1.80;;;;;;;;;;5056789;22;20714;-76
2022/07/18 03:08:03;;;;;;;3.13;1.50;;;;;;;;;;5033693;28;20197;-76
2022/07/18 03:11:07;;;;;;;4.90;2.10;;;;;;;;;;5021032;28;20228;-76
2022/07/18 03:14:11;;;;;;;4.37;2.27;;;;;;;;;;5037247;28;20547;-76
2022/07/18 03:17:15;;;;;;;3.20;2.10;;;;;;;;;;5053109;28;20195;-76
2022/07/18 03:20:20;;;;;;;4.13;2.17;;;;;;;;;;5028748;28;20532;-76
2022/07/18 03:23:24;;;;;;;3.20;2.17;;;;;;;;;;5040840;28;20180;-76
2022/07/18 03:26:28;;;;;;;2.10;1.90;;;;;;;;;;5053203;28;20635;-76
2022/07/18 03:29:32;;;;;;;3.50;2.30;;;;;;;;;;5029301;28;20208;-76
2022/07/18 03:32:36;;;;;;;3.80;2.10;;;;;;;;;;5053201;28;20215;-76
2022/07/18 03:35:40;;;;;;;2.40;2.10;;;;;;;;;;5040813;28;20191;-76
2022/07/18 03:38:45;;;;;;;3.80;2.40;;;;;;;;;;5029464;28;20195;-76
2022/07/18 03:41:48;;;;;;;3.17;2.40;;;;;;;;;;5053230;28;20215;-76
2022/07/18 03:44:52;;;;;;;5.37;2.53;;;;;;;;;;5053409;28;20176;-77
2022/07/18 03:47:57;;;;;;;5.83;2.10;;;;;;;;;;5029489;28;20179;-76
2022/07/18 03:51:02;;;;;;;7.07;2.23;;;;;;;;;;5040759;28;20532;-77
2022/07/18 03:54:06;;;;;;;5.57;1.97;;;;;;;;;;5020888;28;20205;-77
2022/07/18 03:57:10;;;;;;;5.67;2.40;;;;;;;;;;5009546;28;20184;-77
2022/07/18 04:00:14;;;;;;;4.43;2.03;;;;;;;;;;5024844;28;20216;-76
2022/07/18 04:03:18;;;;;;;3.97;2.50;;;;;;;;;;5052633;28;20523;-76
2022/07/18 04:06:23;;;;;;;4.07;2.30;;;;;;;;;;5052787;28;20172;-76
2022/07/18 04:09:27;;;;;;;3.70;2.20;;;;;;;;;;5052850;28;20184;-76
2022/07/18 04:12:32;;;;;;;6.00;2.07;;;;;;;;;;5040055;28;20224;-76
2022/07/18 04:15:37;;;;;;;3.30;2.20;;;;;;;;;;5040356;28;20200;-76
2022/07/18 04:18:41;;;;;;;4.80;2.20;;;;;;;;;;5040411;28;20654;-76
2022/07/18 04:21:45;;;;;;;6.07;2.30;;;;;;;;;;5040317;28;20212;-76
2022/07/18 04:24:49;;;;;;;4.63;2.30;;;;;;;;;;5020418;28;20204;-76
2022/07/18 04:27:54;;;;;;;2.27;2.07;;;;;;;;;;5009201;28;20548;-76
2022/07/18 04:30:58;;;;;;;3.10;2.27;;;;;;;;;;5033724;28;20212;-77
2022/07/18 04:34:03;;;;;;;3.00;1.93;;;;;;;;;;5038528;28;20639;-77
2022/07/18 04:37:07;;;;;;;5.87;2.30;;;;;;;;;;5025515;28;20176;-77
2022/07/18 04:40:12;;;;;;;2.83;1.97;;;;;;;;;;5039977;28;20212;-77
2022/07/18 04:43:15;;;;;;;2.53;2.30;;;;;;;;;;5045883;28;20172;-77
2022/07/18 04:46:20;;;;;;;3.17;1.90;;;;;;;;;;5045458;28;20184;-77
2022/07/18 04:49:24;;;;;;;3.10;2.63;;;;;;;;;;5057359;28;20191;-77
2022/07/18 04:52:37;;;;;;;2.87;2.50;;;;;;;;;;5057549;28;20215;-77
2022/07/18 04:55:41;;;;;;;2.80;2.23;;;;;;;;;;5034137;28;20667;-77
2022/07/18 04:58:45;;;;;;;3.47;2.40;;;;;;;;;;5045217;28;20188;-77
2022/07/18 05:01:49;;;;;;;3.30;2.37;;;;;;;;;;5045295;28;20212;-77
2022/07/18 05:04:53;;;;;;;3.23;2.43;;;;;;;;;;5045313;28;20195;-77
2022/07/18 05:07:57;;;;;;;4.00;2.10;;;;;;;;;;5044875;28;20528;-77
2022/07/18 05:11:01;;;;;;;3.17;2.37;;;;;;;;;;5045321;28;20216;-77
2022/07/18 05:14:06;;;;;;;2.50;2.07;;;;;;;;;;5033439;28;20187;-77
2022/07/18 05:17:10;;;;;;;2.83;2.53;;;;;;;;;;5045321;28;20192;-77
2022/07/18 05:20:17;;;;;;;4.00;2.10;;;;;;;;;;5034484;28;20212;-77
2022/07/18 05:23:23;;;;;;;4.43;2.87;;;;;;;;;;5058790;28;20199;-77
2022/07/18 05:26:27;;;;;;;6.47;3.00;;;;;;;;;;5032948;28;20188;-77
2022/07/18 05:29:32;;;;;;;4.73;2.80;;;;;;;;;;5030245;28;20187;-77
2022/07/18 05:32:38;;;;;;;3.90;2.47;;;;;;;;;;5057404;28;20215;-77
2022/07/18 05:35:42;;;;;;;5.33;2.67;;;;;;;;;;5016452;28;20180;-77
2022/07/18 05:38:46;;;;;;;3.00;2.53;;;;;;;;;;5017861;28;20181;-77
2022/07/18 05:41:51;;;;;;;4.90;2.60;;;;;;;;;;5031933;28;20224;-77
2022/07/18 05:44:55;;;;;;;6.87;2.20;;;;;;;;;;5059567;28;20523;-77
2022/07/18 05:47:59;;;;;;;7.27;2.50;;;;;;;;;;5023531;28;20192;-77
2022/07/18 05:51:06;;;;;;;2.60;2.40;;;;;;;;;;5045962;28;20254;-77
2022/07/18 05:54:10;;;;;;;7.13;2.60;;;;;;;;;;5034880;28;20203;-77
2022/07/18 05:57:14;;;;;;;3.80;2.40;;;;;;;;;;5046646;28;20173;-78
2022/07/18 06:00:19;;;;;;;5.03;2.30;;;;;;;;;;5034279;28;20207;-77
2022/07/18 06:03:23;;;;;;;5.93;2.27;;;;;;;;;;5034101;28;20181;-78
2022/07/18 06:06:29;;;;;;;6.60;2.37;;;;;;;;;;5040989;28;20199;-77
2022/07/18 06:09:33;;;;;;;5.60;2.30;;;;;;;;;;5025721;28;20212;-77
2022/07/18 06:12:38;;;;;;;3.50;2.13;;;;;;;;;;5025544;28;20212;-77
2022/07/18 06:15:42;;;;;;;7.47;2.60;;;;;;;;;;5025290;28;20189;-78
2022/07/18 06:18:46;;;;;;;4.17;2.47;;;;;;;;;;5025829;28;20181;-77
2022/07/18 06:21:50;;;;;;;9.67;2.90;;;;;;;;;;5025290;28;20224;-77
2022/07/18 06:24:54;;;;;;;6.70;2.80;;;;;;;;;;5030332;28;20651;-77
2022/07/18 06:27:58;;;;;;;7.30;2.93;;;;;;;;;;5045117;28;20184;-78
2022/07/18 06:31:03;;;;;;;8.50;2.77;;;;;;;;;;5045479;28;20563;-78
2022/07/18 06:34:07;;;;;;;6.50;2.17;;;;;;;;;;5014010;28;20528;-77
2022/07/18 06:37:11;;;;;;;3.67;2.47;;;;;;;;;;5037156;28;20173;-77
2022/07/18 06:40:15;;;;;;;7.10;3.37;;;;;;;;;;5045381;28;20204;-78
2022/07/18 06:43:19;;;;;;;8.37;2.97;;;;;;;;;;5034549;28;20188;-78
2022/07/18 06:46:24;;;;;;;16.27;3.80;;;;;;;;;;5034561;28;20180;-78
2022/07/18 06:49:28;;;;;;;10.40;3.43;;;;;;;;;;5033169;28;20188;-77
2022/07/18 06:52:33;;;;;;;5.47;2.60;;;;;;;;;;5044873;28;20220;-77
2022/07/18 06:55:37;;;;;;;6.80;2.77;;;;;;;;;;5045626;28;20195;-77
2022/07/18 06:58:42;;;;;;;7.13;2.60;;;;;;;;;;5033697;28;20543;-78
2022/07/18 07:01:46;;;;;;;6.23;2.63;;;;;;;;;;5032929;28;20223;-77
2022/07/18 07:04:50;;;;;;;5.40;2.47;;;;;;;;;;5025711;28;20671;-78
2022/07/18 07:07:54;;;;;;;4.67;2.47;;;;;;;;;;5027275;28;20177;-78
2022/07/18 07:10:59;;;;;;;5.63;2.60;;;;;;;;;;5033889;28;20220;-78
2022/07/18 07:14:04;;;;;;;4.40;2.37;;;;;;;;;;5035270;28;20188;-76
2022/07/18 07:17:08;;;;;;;3.37;2.13;;;;;;;;;;5041132;28;20639;-77
2022/07/18 07:20:13;;;;;;;6.27;2.10;;;;;;;;;;5040960;28;20188;-77
2022/07/18 07:23:17;;;;;;;3.07;2.07;;;;;;;;;;5040949;28;20180;-77
2022/07/18 07:26:21;;;;;;;5.17;2.80;;;;;;;;;;5039518;28;20179;-77
2022/07/18 07:29:25;;;;;;;6.60;2.30;;;;;;;;;;5029371;28;20184;-76
2022/07/18 07:32:36;;;;;;;3.50;2.33;;;;;;;;;;5040408;28;20207;-77
2022/07/18 07:35:40;;;;;;;5.50;2.13;;;;;;;;;;5040613;28;20188;-77
2022/07/18 07:38:44;;;;;;;3.63;2.23;;;;;;;;;;5030301;28;20176;-77
2022/07/18 07:41:49;;;;;;;8.97;2.20;;;;;;;;;;5028986;28;20217;-77
2022/07/18 07:44:53;;;;;;;4.13;1.90;;;;;;;;;;5052219;28;20189;-77
2022/07/18 07:47:57;;;;;;;4.93;1.90;;;;;;;;;;5038405;28;20187;-77
2022/07/18 07:51:03;;;;;;;5.60;2.00;;;;;;;;;;5053033;28;20213;-77
2022/07/18 07:54:07;;;;;;;5.87;2.30;;;;;;;;;;5042825;28;20194;-77
2022/07/18 07:57:11;;;;;;;8.98;2.15;;;;;;;;;;5026447;28;20188;-77
2022/07/18 08:00:15;;;;;;;7.50;1.95;;;;;;;;;;5040575;28;20195;-77
2022/07/18 08:03:19;;;;;;;4.43;2.10;;;;;;;;;;5023279;28;20210;-77
2022/07/18 08:06:24;;;;;;;2.88;1.88;;;;;;;;;;5039293;28;20661;-77
2022/07/18 08:09:28;;;;;;;2.03;1.65;;;;;;;;;;5045430;28;20181;-77
2022/07/18 08:12:32;;;;;;;2.97;1.48;;;;;;;;;;5044970;28;20218;-77
2022/07/18 08:15:37;;;;;;;2.63;1.80;;;;;;;;;;5044527;28;20522;-77
2022/07/18 08:18:41;;;;;;;3.08;1.65;;;;;;;;;;5058047;28;20192;-74
2022/07/18 08:21:45;;;;;;;2.15;1.60;;;;;;;;;;5039475;28;20223;-77
2022/07/18 08:24:50;;;;;;;4.03;1.40;;;;;;;;;;5044911;28;20636;-75
2022/07/18 08:27:55;;;;;;;1.67;1.40;;;;;;;;;;5023847;28;20193;-75
2022/07/18 08:30:59;;;;;;;17.95;2.53;;;;;;;;;;5024103;28;20565;-75
2022/07/18 08:34:03;;;;;;;2.88;1.45;;;;;;;;;;5038431;28;20185;-75
2022/07/18 08:37:07;;;;;;;1.60;1.20;;;;;;;;;;5043936;28;20177;-75
2022/07/18 08:40:12;;;;;;;1.83;1.40;;;;;;;;;;5055507;28;20188;-75
2022/07/18 08:43:17;;;;;;;1.40;1.20;;;;;;;;;;5056121;28;20177;-75
2022/07/18 08:46:22;;;;;;;4.88;1.80;;;;;;;;;;5055870;28;20557;-75
2022/07/18 08:49:26;;;;;;;1.77;1.20;;;;;;;;;;5049967;28;20184;-75
2022/07/18 08:52:32;;;;;;;6.53;1.83;;;;;;;;;;5055128;28;20212;-75
2022/07/18 08:55:36;;;;;;;3.42;1.42;;;;;;;;;;5055329;28;20525;-75
2022/07/18 08:58:40;;;;;;;2.05;1.20;;;;;;;;;;5055346;28;20193;-75
2022/07/18 09:01:44;;;;;;;3.30;1.33;;;;;;;;;;5043009;28;20219;-75
2022/07/18 09:04:48;;;;;;;2.03;1.55;;;;;;;;;;5055763;22;20709;-89
2022/07/18 09:08:17;;;;;;;2.60;1.45;;;;;;;;;;5035891;28;20195;-89
2022/07/18 09:11:21;;;;;;;3.33;1.45;;;;;;;;;;5051944;28;20204;-89
2022/07/18 09:14:40;;;;;;;2.10;1.10;;;;;;;;;;5061404;28;20520;-89
2022/07/18 09:17:44;;;;;;;1.75;1.20;;;;;;;;;;5031218;28;20181;-89
2022/07/18 09:20:59;;;;;;;3.05;1.00;;;;;;;;;;5022240;28;20200;-88
2022/07/18 09:24:04;;;;;;;2.83;1.10;;;;;;;;;;5043065;28;20185;-89
2022/07/18 09:27:27;;;;;;;5.03;1.25;;;;;;;;;;5032017;28;20196;-89
2022/07/18 09:30:35;;;;;;;4.25;1.20;;;;;;;;;;5016910;28;20659;-89
2022/07/18 09:33:39;;;;;;;2.30;1.15;;;;;;;;;;5031880;28;20531;-89
2022/07/18 09:36:56;;;;;;;2.22;1.20;;;;;;;;;;5041712;28;20200;-89
2022/07/18 09:40:15;;;;;;;2.53;1.15;;;;;;;;;;5031911;28;20180;-90
2022/07/18 09:43:21;;;;;;;2.35;1.10;;;;;;;;;;5030522;28;20181;-90
2022/07/18 09:46:26;;;;;;;3.08;1.10;;;;;;;;;;5025793;28;20216;-89
2022/07/18 09:49:34;;;;;;;1.05;0.95;;;;;;;;;;5031400;28;20210;-89
2022/07/18 09:52:40;;;;;;;3.45;1.13;;;;;;;;;;5030962;28;20209;-90
2022/07/18 09:55:50;;;;;;;5.40;1.23;;;;;;;;;;5031499;28;20559;-89
2022/07/18 09:58:57;;;;;;;5.43;1.40;;;;;;;;;;5042763;28;20181;-88
2022/07/18 10:02:03;;;;;;;2.17;1.00;;;;;;;;;;5031241;28;20192;-89
2022/07/18 10:05:07;;;;;;;1.40;1.10;;;;;;;;;;5027632;28;20567;-89
2022/07/18 10:08:14;;;;;;;3.53;1.20;;;;;;;;;;5030955;28;20200;-89
2022/07/18 10:11:18;;;;;;;1.58;1.13;;;;;;;;;;5031245;28;20213;-89
2022/07/18 10:14:22;;;;;;;2.75;1.33;;;;;;;;;;5011794;28;20632;-89
2022/07/18 10:17:27;;;;;;;2.92;1.17;;;;;;;;;;5028435;28;20192;-90
2022/07/18 10:20:36;;;;;;;1.42;1.17;;;;;;;;;;5042460;28;20181;-89
2022/07/18 10:23:44;;;;;;;2.42;1.20;;;;;;;;;;5030311;28;20180;-89
2022/07/18 10:27:15;;;;;;;4.00;1.13;;;;;;;;;;5019256;28;20192;-90
2022/07/18 10:30:30;;;;;;;2.85;1.20;;;;;;;;;;5030359;28;20184;-88
2022/07/18 10:33:41;;;;;;;3.15;1.25;;;;;;;;;;5040732;28;20181;-88
2022/07/18 10:36:51;;;;;;;1.30;1.20;;;;;;;;;;5041426;28;20177;-89
2022/07/18 10:39:55;;;;;;;1.70;0.95;;;;;;;;;;5030610;28;20181;-89
2022/07/18 10:43:31;;;;;;;1.10;1.00;;;;;;;;;;5030208;28;20180;-89
2022/07/18 10:47:03;;;;;;;1.30;1.20;;;;;;;;;;5030242;28;20212;-89
2022/07/18 10:50:08;;;;;;;1.35;1.00;;;;;;;;;;5030668;28;20180;-89
2022/07/18 10:53:12;;;;;;;2.35;1.30;;;;;;;;;;5041883;28;20204;-89
2022/07/18 10:56:16;;;;;;;1.75;1.30;;;;;;;;;;5041368;28;20220;-89
2022/07/18 10:59:24;;;;;;;1.67;1.17;;;;;;;;;;5019534;28;20185;-89
2022/07/18 11:02:40;;;;;;;3.30;1.30;;;;;;;;;;5031067;28;20176;-89
2022/07/18 11:05:45;;;;;;;5.10;1.30;;;;;;;;;;5018707;28;20568;-89
2022/07/18 11:08:50;;;;;;;2.90;1.30;;;;;;;;;;5041282;28;20189;-88
2022/07/18 11:12:23;;;;;;;1.92;1.20;;;;;;;;;;5041776;28;20208;-88
2022/07/18 11:16:05;;;;;;;1.58;1.10;;;;;;;;;;5041305;28;20212;-88
2022/07/18 11:19:09;;;;;;;2.10;1.20;;;;;;;;;;5014220;28;20181;-88
2022/07/18 11:22:17;;;;;;;2.33;1.08;;;;;;;;;;5030513;28;20181;-88
2022/07/18 11:25:31;;;;;;;3.80;1.40;;;;;;;;;;5018241;28;20216;-88
2022/07/18 11:28:35;;;;;;;3.65;1.30;;;;;;;;;;5029800;28;20218;-88
2022/07/18 11:31:45;;;;;;;2.10;1.50;;;;;;;;;;5021185;28;20212;-89
2022/07/18 11:34:50;;;;;;;1.67;1.33;;;;;;;;;;5020485;28;20216;-88
2022/07/18 11:37:55;;;;;;;4.80;1.40;;;;;;;;;;5029431;28;20200;-89
2022/07/18 11:40:59;;;;;;;2.72;1.20;;;;;;;;;;5020603;28;20535;-89
2022/07/18 11:44:03;;;;;;;1.45;1.05;;;;;;;;;;5034759;28;20192;-88
2022/07/18 11:47:10;;;;;;;1.27;1.17;;;;;;;;;;5021191;28;20189;-89
2022/07/18 11:50:14;;;;;;;1.52;1.27;;;;;;;;;;5018324;28;20540;-89
2022/07/18 11:53:18;;;;;;;1.90;1.10;;;;;;;;;;5023835;28;20216;-88
2022/07/18 11:56:23;;;;;;;2.40;1.20;;;;;;;;;;5032408;28;20707;-88
2022/07/18 11:59:41;;;;;;;3.78;1.20;;;;;;;;;;5038806;28;20200;-89
2022/07/18 12:02:45;;;;;;;1.92;1.35;;;;;;;;;;5011658;28;20189;-88
2022/07/18 12:05:52;;;;;;;1.67;1.42;;;;;;;;;;5036350;28;20655;-88
2022/07/18 12:09:03;;;;;;;4.07;1.20;;;;;;;;;;5037759;28;20192;-88
2022/07/18 12:12:09;;;;;;;3.28;1.02;;;;;;;;;;5021798;28;20565;-89
2022/07/18 12:15:13;;;;;;;4.50;1.15;;;;;;;;;;5005342;28;20228;-88
2022/07/18 12:18:28;;;;;;;2.58;1.20;;;;;;;;;;5040495;28;20184;-88
2022/07/18 12:22:08;;;;;;;1.40;1.30;;;;;;;;;;5029461;28;20176;-88
2022/07/18 12:25:12;;;;;;;3.85;1.10;;;;;;;;;;5029083;28;20224;-88
2022/07/18 12:28:18;;;;;;;4.10;1.20;;;;;;;;;;5029334;28;20176;-88
2022/07/18 12:31:45;;;;;;;4.95;1.30;;;;;;;;;;5029432;28;20543;-88
2022/07/18 12:35:23;;;;;;;1.63;0.95;;;;;;;;;;5040002;28;20212;-88
2022/07/18 12:38:27;;;;;;;2.00;0.98;;;;;;;;;;5029123;28;20201;-88
2022/07/18 12:41:31;;;;;;;6.65;1.50;;;;;;;;;;5029274;28;20200;-88
2022/07/18 12:44:35;;;;;;;2.15;1.40;;;;;;;;;;5028615;28;20220;-88
2022/07/18 12:47:40;;;;;;;2.30;1.30;;;;;;;;;;5029485;28;20655;-88
2022/07/18 12:50:46;;;;;;;3.83;1.30;;;;;;;;;;5040623;28;20184;-89
2022/07/18 12:53:50;;;;;;;4.05;1.33;;;;;;;;;;5032344;28;20208;-89
2022/07/18 12:56:55;;;;;;;1.45;1.27;;;;;;;;;;5032387;28;20181;-88
2022/07/18 12:59:59;;;;;;;4.75;1.20;;;;;;;;;;5024021;28;20188;-89
2022/07/18 13:03:03;;;;;;;1.73;1.17;;;;;;;;;;5025194;28;20173;-88
2022/07/18 13:06:07;;;;;;;2.55;1.40;;;;;;;;;;5032368;28;20219;-90
2022/07/18 13:09:11;;;;;;;2.03;1.10;;;;;;;;;;5020779;28;20181;-90
2022/07/18 13:12:15;;;;;;;6.07;1.48;;;;;;;;;;5032131;28;20209;-88
2022/07/18 13:15:21;;;;;;;1.20;1.10;;;;;;;;;;5043676;28;20216;-89
2022/07/18 13:18:25;;;;;;;3.13;1.30;;;;;;;;;;5031863;28;20192;-89
2022/07/18 13:21:29;;;;;;;2.30;1.20;;;;;;;;;;5031946;28;20192;-90
2022/07/18 13:24:33;;;;;;;2.92;1.40;;;;;;;;;;5031966;28;20564;-89
2022/07/18 13:27:38;;;;;;;2.63;1.20;;;;;;;;;;5031864;28;20185;-89
2022/07/18 13:30:42;;;;;;;1.70;0.95;;;;;;;;;;5043379;28;20185;-89
2022/07/18 13:33:47;;;;;;;2.05;1.02;;;;;;;;;;5031832;28;20205;-89
2022/07/18 13:36:52;;;;;;;1.10;1.00;;;;;;;;;;5031785;28;20193;-88
2022/07/18 13:39:56;;;;;;;2.08;1.13;;;;;;;;;;5031922;28;20188;-88
2022/07/18 13:43:00;;;;;;;1.70;0.90;;;;;;;;;;5031756;28;20200;-87
2022/07/18 13:46:05;;;;;;;1.50;0.93;;;;;;;;;;5020451;28;20224;-88
2022/07/18 13:49:10;;;;;;;1.83;1.20;;;;;;;;;;5031883;28;20188;-88
2022/07/18 13:52:15;;;;;;;4.20;1.23;;;;;;;;;;5031238;28;20188;-90
2022/07/18 13:55:18;;;;;;;3.10;1.00;;;;;;;;;;5022955;28;20216;-90
2022/07/18 13:58:23;;;;;;;3.47;1.17;;;;;;;;;;5032287;28;20193;-90
2022/07/18 14:01:27;;;;;;;1.10;1.00;;;;;;;;;;5019719;28;20196;-89
2022/07/18 14:04:31;;;;;;;1.38;1.10;;;;;;;;;;5040496;28;20219;-87
2022/07/18 14:07:35;;;;;;;3.30;1.40;;;;;;;;;;5030685;28;20184;-88
2022/07/18 14:10:39;;;;;;;2.30;1.30;;;;;;;;;;5012024;28;20178;-88
2022/07/18 14:13:43;;;;;;;3.30;1.00;;;;;;;;;;5026203;28;20212;-87
2022/07/18 14:16:47;;;;;;;3.05;1.35;;;;;;;;;;5040724;28;20678;-87
2022/07/18 14:19:51;;;;;;;2.45;1.13;;;;;;;;;;5027668;28;20200;-88
2022/07/18 14:22:56;;;;;;;1.63;1.10;;;;;;;;;;5022774;28;20181;-88
2022/07/18 14:26:00;;;;;;;1.70;1.20;;;;;;;;;;5022559;28;20220;-87
2022/07/18 14:29:04;;;;;;;3.58;1.80;;;;;;;;;;5025363;28;20192;-88
2022/07/18 14:32:08;;;;;;;3.88;1.30;;;;;;;;;;5031139;28;20172;-88
2022/07/18 14:35:13;;;;;;;4.45;1.10;;;;;;;;;;5030459;28;20208;-88
2022/07/18 14:38:17;;;;;;;1.95;1.38;;;;;;;;;;5030401;28;20643;-89
2022/07/18 14:41:21;;;;;;;3.55;1.20;;;;;;;;;;5033658;28;20177;-88
2022/07/18 14:44:26;;;;;;;1.23;1.05;;;;;;;;;;5022065;28;20512;-88
2022/07/18 14:47:32;;;;;;;1.40;0.90;;;;;;;;;;5029877;28;20176;-88
2022/07/18 14:50:37;;;;;;;2.53;1.30;;;;;;;;;;5030246;28;20192;-88
2022/07/18 14:53:40;;;;;;;3.55;1.10;;;;;;;;;;5029962;28;20204;-87
2022/07/18 14:56:45;;;;;;;2.78;1.20;;;;;;;;;;5029885;28;20200;-88
2022/07/18 14:59:49;;;;;;;4.10;1.50;;;;;;;;;;5041433;28;20188;-87
2022/07/18 15:02:53;;;;;;;2.30;1.30;;;;;;;;;;5031243;28;20184;-88
2022/07/18 15:05:57;;;;;;;7.85;1.60;;;;;;;;;;5075137;23;20420;-86
2022/07/18 15:09:01;;;;;;;3.80;1.20;;;;;;;;;;5069329;28;20191;-87
2022/07/18 15:12:06;;;;;;;3.58;1.25;;;;;;;;;;5058478;28;20187;-87
2022/07/18 15:15:10;;;;;;;5.05;1.33;;;;;;;;;;5051507;28;20211;-87
2022/07/18 15:18:14;;;;;;;21.98;2.70;;;;;;;;;;5050532;28;20626;-87
2022/07/18 15:21:18;;;;;;;4.03;1.35;;;;;;;;;;5062131;28;20184;-87
2022/07/18 15:24:22;;;;;;;2.35;1.27;;;;;;;;;;5048304;28;20183;-87
2022/07/18 15:27:26;;;;;;;4.22;1.42;;;;;;;;;;5041803;28;20192;-86
2022/07/18 15:30:30;;;;;;;4.35;1.33;;;;;;;;;;5056268;28;20184;-86
2022/07/18 15:33:34;;;;;;;1.20;1.10;;;;;;;;;;5050470;28;20203;-86
2022/07/18 15:36:39;;;;;;;5.38;1.05;;;;;;;;;;5050122;28;20566;-86
2022/07/18 15:39:43;;;;;;;1.73;1.25;;;;;;;;;;5023337;28;20639;-86
2022/07/18 15:42:47;;;;;;;1.35;1.25;;;;;;;;;;5031076;28;20643;-87
2022/07/18 15:45:51;;;;;;;2.53;1.00;;;;;;;;;;5039320;28;20219;-84
2022/07/18 15:48:55;;;;;;;1.80;1.40;;;;;;;;;;5061918;28;20187;-86
2022/07/18 15:52:00;;;;;;;1.38;1.27;;;;;;;;;;5074410;28;20195;-86
2022/07/18 15:55:04;;;;;;;5.15;1.38;;;;;;;;;;5061519;28;20556;-86
2022/07/18 15:58:08;;;;;;;3.72;1.10;;;;;;;;;;5049935;28;20199;-86
2022/07/18 16:01:13;;;;;;;3.03;1.20;;;;;;;;;;5049736;28;20204;-86
2022/07/18 16:04:18;;;;;;;2.13;1.15;;;;;;;;;;5050212;28;20176;-86
2022/07/18 16:07:22;;;;;;;1.55;1.25;;;;;;;;;;5050062;28;20196;-86
2022/07/18 16:10:26;;;;;;;3.42;1.27;;;;;;;;;;5038295;28;20208;-86
2022/07/18 16:13:32;;;;;;;3.42;1.40;;;;;;;;;;5040850;28;20208;-86
2022/07/18 16:16:43;;;;;;;3.03;1.25;;;;;;;;;;5049697;28;20678;-86
2022/07/18 16:19:47;;;;;;;3.50;1.48;;;;;;;;;;5038544;28;20200;-86
2022/07/18 16:22:52;;;;;;;4.30;1.20;;;;;;;;;;5048735;28;20188;-86
2022/07/18 16:25:56;;;;;;;2.58;1.25;;;;;;;;;;5049547;28;20216;-86
2022/07/18 16:29:01;;;;;;;3.30;1.40;;;;;;;;;;5053522;28;20183;-86
2022/07/18 16:32:09;;;;;;;3.42;1.13;;;;;;;;;;5042804;28;20181;-86
2022/07/18 16:35:13;;;;;;;4.53;2.08;;;;;;;;;;5046753;28;20219;-86
2022/07/18 16:38:17;;;;;;;4.60;1.55;;;;;;;;;;5053041;28;20187;-86
2022/07/18 16:41:21;;;;;;;3.72;1.13;;;;;;;;;;5042143;28;20180;-86
2022/07/18 16:44:26;;;;;;;3.10;1.20;;;;;;;;;;5053502;28;20511;-86
2022/07/18 16:47:30;;;;;;;1.85;1.20;;;;;;;;;;5049459;28;20209;-87
2022/07/18 16:50:35;;;;;;;1.98;1.35;;;;;;;;;;5052730;28;20192;-87
2022/07/18 16:53:40;;;;;;;3.80;1.27;;;;;;;;;;5044413;28;20666;-86
2022/07/18 16:56:44;;;;;;;2.90;1.23;;;;;;;;;;5035124;28;20218;-86
2022/07/18 16:59:48;;;;;;;3.80;1.13;;;;;;;;;;5045455;28;20210;-86
2022/07/18 17:02:53;;;;;;;4.63;1.40;;;;;;;;;;5061618;28;20200;-86
2022/07/18 17:05:58;;;;;;;3.58;1.27;;;;;;;;;;5044912;28;20223;-86
2022/07/18 17:09:03;;;;;;;5.20;1.33;;;;;;;;;;5064860;28;20203;-86
2022/07/18 17:12:08;;;;;;;1.90;1.20;;;;;;;;;;5041440;28;20194;-86
2022/07/18 17:15:13;;;;;;;1.45;1.13;;;;;;;;;;5052149;28;20227;-86
2022/07/18 17:18:18;;;;;;;3.55;1.33;;;;;;;;;;5051922;28;20193;-86
2022/07/18 17:21:22;;;;;;;1.70;1.23;;;;;;;;;;5043353;28;20658;-85
2022/07/18 17:24:27;;;;;;;3.55;1.60;;;;;;;;;;5032354;28;20169;-86
2022/07/18 17:27:32;;;;;;;2.15;1.20;;;;;;;;;;5043515;28;20183;-86
2022/07/18 17:30:37;;;;;;;6.65;1.73;;;;;;;;;;5056031;28;20186;-85
2022/07/18 17:33:41;;;;;;;4.53;1.35;;;;;;;;;;5051551;28;20208;-85
2022/07/18 17:36:46;;;;;;;5.10;1.55;;;;;;;;;;5051551;28;20213;-86
2022/07/18 17:39:50;;;;;;;4.57;1.40;;;;;;;;;;5050537;28;20513;-86
2022/07/18 17:42:55;;;;;;;4.45;1.30;;;;;;;;;;5051246;28;20190;-86
2022/07/18 17:46:00;;;;;;;5.57;1.50;;;;;;;;;;5051573;28;20213;-86
2022/07/18 17:49:05;;;;;;;2.97;1.38;;;;;;;;;;5051347;28;20191;-86
2022/07/18 17:52:10;;;;;;;3.03;1.20;;;;;;;;;;5051381;28;20621;-86
2022/07/18 17:55:14;;;;;;;2.90;1.42;;;;;;;;;;5051571;28;20707;-86
2022/07/18 17:58:19;;;;;;;2.80;1.35;;;;;;;;;;5051798;28;20187;-86
2022/07/18 18:01:22;;;;;;;2.00;1.40;;;;;;;;;;5051921;28;20173;-85
2022/07/18 18:04:26;;;;;;;3.10;1.27;;;;;;;;;;5042975;28;20189;-86
2022/07/18 18:07:31;;;;;;;5.72;1.67;;;;;;;;;;5046412;28;20187;-86
2022/07/18 18:10:35;;;;;;;5.72;1.40;;;;;;;;;;5046454;28;20196;-85
2022/07/18 18:13:41;;;;;;;6.88;1.88;;;;;;;;;;5054234;28;20198;-86
2022/07/18 18:16:45;;;;;;;7.03;1.90;;;;;;;;;;5051867;28;20217;-86
2022/07/18 18:19:49;;;;;;;4.43;1.50;;;;;;;;;;5043025;28;20200;-85
2022/07/18 18:22:53;;;;;;;5.45;1.70;;;;;;;;;;5051812;28;20197;-86
2022/07/18 18:25:57;;;;;;;3.92;1.40;;;;;;;;;;5043105;28;20213;-85
2022/07/18 18:29:02;;;;;;;8.98;1.40;;;;;;;;;;5040156;28;20189;-84
2022/07/18 18:32:11;;;;;;;4.78;1.73;;;;;;;;;;5048531;28;20180;-84